Airport ICAO


14:33 UTC

6°C


An affordable passengers' Moving Map for your aircraft. Made for the iPad and the iPhone
More information here

EGSS Stansted


London UNITED KINGDOM   VFR


METAR EGSS 241420Z AUTO 24003KT 9999 NCD 06/01 Q1011 0h13min

TAF EGSS 241058Z 2412/2518 29008KT 9999 FEW040 3h35min





NOTAMS

OPEN